Time;durP1;ratioP1;P1;durP2;ratioP2;P2;SDS_P1;SDS_P2;PMS_P1;PMS_P2;Temp;Humidity;BMP_temperature;BMP_pressure;BME280_temperature;BME280_humidity;BME280_pressure;Samples;Min_cycle;Max_cycle;Signal;HPM_P1;HPM_P2
2023/04/10 00:00:14;;;;;;;;;11.75;9.00;;;;;;;;5071062;27;50127;-74
2023/04/10 00:02:39;;;;;;;;;16.25;14.50;;;;;;;;5069854;27;49779;-74
2023/04/10 00:05:05;;;;;;;;;12.50;11.25;;;;;;;;5067156;27;50083;-74
2023/04/10 00:07:31;;;;;;;;;15.50;14.50;;;;;;;;5069186;27;49999;-74
2023/04/10 00:09:56;;;;;;;;;11.25;11.00;;;;;;;;5069341;27;49696;-73
2023/04/10 00:12:21;;;;;;;;;12.25;12.25;;;;;;;;5080282;27;49668;-74
2023/04/10 00:14:46;;;;;;;;;19.75;15.25;;;;;;;;5067175;27;49857;-74
2023/04/10 00:17:12;;;;;;;;;13.25;13.00;;;;;;;;5078709;27;49781;-74
2023/04/10 00:19:37;;;;;;;;;12.75;12.00;;;;;;;;5069225;27;50053;-74
2023/04/10 00:22:02;;;;;;;;;11.50;11.50;;;;;;;;5079961;27;50038;-74
2023/04/10 00:24:27;;;;;;;;;15.50;13.25;;;;;;;;5076768;27;50558;-74
2023/04/10 00:26:53;;;;;;;;;13.75;13.75;;;;;;;;5057523;28;49786;-74
2023/04/10 00:29:18;;;;;;;;;11.75;11.75;;;;;;;;5069308;27;49961;-74
2023/04/10 00:31:43;;;;;;;;;15.50;14.75;;;;;;;;5069374;27;49686;-75
2023/04/10 00:34:08;;;;;;;;;14.75;13.75;;;;;;;;5068766;27;51013;-72
2023/04/10 00:36:34;;;;;;;;;14.00;13.50;;;;;;;;5071146;27;49770;-74
2023/04/10 00:38:59;;;;;;;;;17.50;15.50;;;;;;;;5073946;27;49840;-72
2023/04/10 00:41:24;;;;;;;;;14.25;14.00;;;;;;;;5045953;27;49683;-74
2023/04/10 00:43:54;;;;;;;;;12.50;12.50;;;;;;;;5068979;27;50688;-71
2023/04/10 00:46:19;;;;;;;;;11.75;11.50;;;;;;;;5076691;27;50267;-74
2023/04/10 00:48:44;;;;;;;;;13.00;13.00;;;;;;;;5073664;27;50078;-74
2023/04/10 00:51:10;;;;;;;;;14.00;14.00;;;;;;;;5069077;27;50036;-74
2023/04/10 00:53:35;;;;;;;;;15.25;12.75;;;;;;;;5068609;27;50911;-74
2023/04/10 00:56:00;;;;;;;;;9.75;9.75;;;;;;;;5068624;27;49754;-73
2023/04/10 00:58:26;;;;;;;;;11.25;11.25;;;;;;;;5068688;27;49669;-74
2023/04/10 01:00:51;;;;;;;;;12.75;11.00;;;;;;;;5068983;27;50115;-74
2023/04/10 01:03:18;;;;;;;;;13.50;12.50;;;;;;;;5067574;27;50894;-74
2023/04/10 01:05:50;;;;;;;;;18.25;15.25;;;;;;;;5066792;27;49805;-73
2023/04/10 01:08:27;;;;;;;;;11.25;11.00;;;;;;;;5069387;27;49881;-73
2023/04/10 01:10:58;;;;;;;;;13.25;10.75;;;;;;;;5066335;27;49932;-73
2023/04/10 01:13:23;;;;;;;;;12.25;11.75;;;;;;;;5071110;27;51354;-74
2023/04/10 01:15:53;;;;;;;;;12.60;10.80;;;;;;;;5072216;27;50053;-74
2023/04/10 01:18:23;;;;;;;;;14.00;14.00;;;;;;;;5069749;27;50093;-73
2023/04/10 01:20:48;;;;;;;;;11.50;11.50;;;;;;;;5074972;27;50040;-74
2023/04/10 01:23:16;;;;;;;;;13.75;13.50;;;;;;;;5053602;27;50562;-73
2023/04/10 01:25:41;;;;;;;;;11.75;10.75;;;;;;;;5072223;27;50077;-74
2023/04/10 01:28:22;;;;;;;;;12.75;11.50;;;;;;;;5071858;27;50156;-74
2023/04/10 01:30:49;;;;;;;;;12.50;12.25;;;;;;;;5071729;27;50580;-73
2023/04/10 01:33:16;;;;;;;;;12.00;10.75;;;;;;;;5071889;27;50610;-73
2023/04/10 01:35:43;;;;;;;;;14.00;14.00;;;;;;;;5076372;27;50177;-74
2023/04/10 01:38:10;;;;;;;;;12.75;11.00;;;;;;;;5070420;27;50170;-73
2023/04/10 01:40:37;;;;;;;;;12.75;11.75;;;;;;;;5070181;27;50218;-73
2023/04/10 01:43:04;;;;;;;;;11.25;10.25;;;;;;;;5066172;27;49777;-73
2023/04/10 01:45:30;;;;;;;;;11.75;10.25;;;;;;;;5071346;27;49726;-73
2023/04/10 01:47:55;;;;;;;;;14.50;14.00;;;;;;;;5078941;27;50091;-73
2023/04/10 01:50:24;;;;;;;;;6.00;5.00;;;;;;;;5091091;27;50045;-73
2023/04/10 01:52:50;;;;;;;;;11.75;11.75;;;;;;;;5071136;27;50496;-74
2023/04/10 01:55:16;;;;;;;;;13.50;12.75;;;;;;;;5071414;27;49785;-74
2023/04/10 01:57:41;;;;;;;;;12.00;12.00;;;;;;;;5071909;27;50161;-73
2023/04/10 02:00:07;;;;;;;;;12.50;11.75;;;;;;;;5071579;27;50070;-73
2023/04/10 02:02:33;;;;;;;;;11.50;11.50;;;;;;;;5071437;27;49798;-73
2023/04/10 02:04:58;;;;;;;;;12.00;11.00;;;;;;;;5071453;27;49808;-73
2023/04/10 02:07:23;;;;;;;;;12.25;10.75;;;;;;;;5071387;27;49811;-73
2023/04/10 02:09:53;;;;;;;;;12.40;11.80;;;;;;;;5071771;27;49850;-74
2023/04/10 02:12:22;;;;;;;;;10.75;9.50;;;;;;;;5071106;27;50002;-74
2023/04/10 02:14:49;;;;;;;;;7.25;6.50;;;;;;;;5070843;27;50047;-73
2023/04/10 02:17:16;;;;;;;;;12.50;11.75;;;;;;;;5071152;27;49803;-74
2023/04/10 02:19:41;;;;;;;;;10.50;10.50;;;;;;;;5071176;27;50032;-73
2023/04/10 02:22:07;;;;;;;;;11.50;9.75;;;;;;;;5067185;27;50079;-74
2023/04/10 02:24:33;;;;;;;;;12.50;11.00;;;;;;;;5069640;27;49755;-74
2023/04/10 02:27:00;;;;;;;;;11.50;11.00;;;;;;;;5062226;27;50194;-73
2023/04/10 02:29:25;;;;;;;;;12.50;11.75;;;;;;;;5071029;27;50118;-74
2023/04/10 02:31:50;;;;;;;;;11.25;10.00;;;;;;;;5070750;27;49758;-74
2023/04/10 02:34:16;;;;;;;;;14.00;13.75;;;;;;;;5069916;27;49931;-73
2023/04/10 02:36:41;;;;;;;;;10.50;10.50;;;;;;;;5071098;27;49752;-74
2023/04/10 02:39:07;;;;;;;;;11.00;11.00;;;;;;;;5071105;27;49859;-74
2023/04/10 02:41:32;;;;;;;;;13.00;12.00;;;;;;;;5070578;27;49761;-75
2023/04/10 02:43:57;;;;;;;;;13.25;12.00;;;;;;;;5070079;27;50039;-74
2023/04/10 02:46:22;;;;;;;;;13.25;10.00;;;;;;;;5070913;27;49766;-73
2023/04/10 02:48:48;;;;;;;;;9.50;8.25;;;;;;;;5052387;27;50004;-74
2023/04/10 02:51:13;;;;;;;;;11.00;10.00;;;;;;;;5070666;27;49932;-74
2023/04/10 02:53:38;;;;;;;;;10.50;10.50;;;;;;;;5052375;27;50019;-74
2023/04/10 02:56:06;;;;;;;;;10.75;10.75;;;;;;;;5080800;27;50018;-74
2023/04/10 02:58:32;;;;;;;;;12.50;12.50;;;;;;;;5083675;27;50054;-74
2023/04/10 03:00:57;;;;;;;;;10.75;10.00;;;;;;;;5068934;27;51019;-74
2023/04/10 03:03:22;;;;;;;;;7.00;7.00;;;;;;;;5075374;27;49793;-74
2023/04/10 03:05:48;;;;;;;;;9.75;9.75;;;;;;;;5070549;27;50027;-74
2023/04/10 03:08:13;;;;;;;;;10.50;10.50;;;;;;;;5070207;27;49777;-74
2023/04/10 03:10:38;;;;;;;;;18.00;11.25;;;;;;;;5070012;27;50933;-73
2023/04/10 03:13:04;;;;;;;;;11.25;7.00;;;;;;;;5070141;27;50101;-74
2023/04/10 03:15:29;;;;;;;;;10.50;10.00;;;;;;;;5070153;27;50217;-73
2023/04/10 03:17:55;;;;;;;;;10.00;10.00;;;;;;;;5070404;27;50046;-74
2023/04/10 03:20:20;;;;;;;;;14.75;11.25;;;;;;;;5070278;27;50566;-73
2023/04/10 03:22:45;;;;;;;;;13.50;10.75;;;;;;;;5072428;27;50077;-74
2023/04/10 03:25:11;;;;;;;;;2.00;2.00;;;;;;;;5070270;27;49750;-74
2023/04/10 03:27:37;;;;;;;;;11.00;11.00;;;;;;;;5076634;27;49933;-74
2023/04/10 03:30:02;;;;;;;;;10.75;10.75;;;;;;;;5069790;27;50953;-74
2023/04/10 03:32:29;;;;;;;;;12.00;11.25;;;;;;;;5069868;27;49699;-74
2023/04/10 03:34:55;;;;;;;;;12.50;12.00;;;;;;;;5069565;27;50003;-74
2023/04/10 03:37:20;;;;;;;;;11.00;9.75;;;;;;;;5070176;27;50044;-74
2023/04/10 03:39:45;;;;;;;;;11.00;10.25;;;;;;;;5070021;27;50405;-74
2023/04/10 03:42:11;;;;;;;;;14.00;14.00;;;;;;;;5069921;27;49988;-74
2023/04/10 03:44:37;;;;;;;;;10.25;9.25;;;;;;;;5069636;27;50268;-74
2023/04/10 03:47:02;;;;;;;;;8.00;7.00;;;;;;;;5069958;27;50069;-74
2023/04/10 03:49:27;;;;;;;;;10.00;8.75;;;;;;;;5069638;27;49773;-74
2023/04/10 03:51:52;;;;;;;;;10.75;9.50;;;;;;;;5068749;27;49757;-73
2023/04/10 03:54:17;;;;;;;;;12.25;10.50;;;;;;;;5069774;27;49987;-74
2023/04/10 03:56:43;;;;;;;;;11.00;10.00;;;;;;;;5051601;28;49991;-74
2023/04/10 03:59:08;;;;;;;;;12.25;11.50;;;;;;;;5067967;27;50547;-73
2023/04/10 04:01:33;;;;;;;;;12.75;10.75;;;;;;;;5070797;27;49904;-73
2023/04/10 04:03:58;;;;;;;;;10.25;10.25;;;;;;;;5068062;27;49890;-74
2023/04/10 04:06:23;;;;;;;;;13.00;11.50;;;;;;;;5073890;27;49732;-74
2023/04/10 04:08:49;;;;;;;;;11.00;11.00;;;;;;;;5079235;27;50745;-73
2023/04/10 04:11:14;;;;;;;;;11.50;11.00;;;;;;;;5053637;28;50089;-73
2023/04/10 04:13:39;;;;;;;;;11.75;10.00;;;;;;;;5069386;27;49886;-74
2023/04/10 04:16:04;;;;;;;;;15.50;12.00;;;;;;;;5050399;27;50133;-74
2023/04/10 04:18:30;;;;;;;;;8.00;8.00;;;;;;;;5068922;27;50640;-73
2023/04/10 04:20:55;;;;;;;;;10.75;10.75;;;;;;;;5074671;27;50063;-74
2023/04/10 04:23:20;;;;;;;;;10.50;10.00;;;;;;;;5070747;27;49696;-74
2023/04/10 04:25:45;;;;;;;;;10.75;10.75;;;;;;;;5068942;27;49909;-73
2023/04/10 04:28:12;;;;;;;;;12.25;12.25;;;;;;;;5068791;27;50541;-73
2023/04/10 04:30:37;;;;;;;;;11.75;11.75;;;;;;;;5071021;27;49774;-73
2023/04/10 04:33:02;;;;;;;;;10.75;10.75;;;;;;;;5077845;27;49849;-74
2023/04/10 04:35:28;;;;;;;;;13.50;11.75;;;;;;;;5071023;27;49988;-73
2023/04/10 04:37:53;;;;;;;;;10.50;10.50;;;;;;;;5075475;27;49806;-74
2023/04/10 04:40:18;;;;;;;;;11.00;11.00;;;;;;;;5068783;27;49778;-73
2023/04/10 04:42:44;;;;;;;;;13.75;11.75;;;;;;;;5064396;27;49781;-73
2023/04/10 04:45:09;;;;;;;;;12.00;12.00;;;;;;;;5068304;27;49601;-73
2023/04/10 04:47:34;;;;;;;;;12.75;12.00;;;;;;;;5069380;27;50958;-73
2023/04/10 04:49:59;;;;;;;;;16.00;12.75;;;;;;;;5054092;28;50142;-73
2023/04/10 04:52:26;;;;;;;;;10.50;10.50;;;;;;;;5076524;27;49928;-73
2023/04/10 04:54:51;;;;;;;;;13.00;9.75;;;;;;;;5076663;27;49845;-74
2023/04/10 04:57:16;;;;;;;;;9.75;9.75;;;;;;;;5067253;28;50381;-73
2023/04/10 04:59:41;;;;;;;;;15.50;12.25;;;;;;;;5072466;27;49711;-73
2023/04/10 05:02:07;;;;;;;;;13.00;12.00;;;;;;;;5070930;27;49769;-73
2023/04/10 05:04:32;;;;;;;;;12.00;12.00;;;;;;;;5056499;27;50720;-73
2023/04/10 05:06:57;;;;;;;;;17.50;13.00;;;;;;;;5074124;27;49862;-73
2023/04/10 05:09:22;;;;;;;;;15.00;11.25;;;;;;;;5058042;27;49878;-73
2023/04/10 05:11:49;;;;;;;;;16.75;15.25;;;;;;;;5072104;27;49901;-73
2023/04/10 05:14:14;;;;;;;;;12.00;12.00;;;;;;;;5076566;27;50382;-73
2023/04/10 05:16:40;;;;;;;;;13.00;10.25;;;;;;;;5071708;27;50004;-73
2023/04/10 05:19:05;;;;;;;;;11.75;11.75;;;;;;;;5056876;27;49775;-73
2023/04/10 05:21:30;;;;;;;;;15.25;11.25;;;;;;;;5053192;27;49867;-73
2023/04/10 05:23:55;;;;;;;;;17.00;13.00;;;;;;;;5075160;27;49991;-74
2023/04/10 05:26:21;;;;;;;;;12.75;12.00;;;;;;;;5074787;27;50572;-74
2023/04/10 05:28:46;;;;;;;;;10.00;10.00;;;;;;;;5080138;27;49712;-73
2023/04/10 05:31:11;;;;;;;;;11.50;10.25;;;;;;;;5079940;27;49597;-72
2023/04/10 05:33:37;;;;;;;;;12.25;12.00;;;;;;;;5072762;27;50513;-73
2023/04/10 05:36:02;;;;;;;;;11.25;11.25;;;;;;;;5072949;27;49868;-74
2023/04/10 05:38:27;;;;;;;;;15.00;12.50;;;;;;;;5071601;27;49742;-74
2023/04/10 05:40:53;;;;;;;;;16.25;13.25;;;;;;;;5078315;27;49927;-74
2023/04/10 05:43:18;;;;;;;;;9.50;9.50;;;;;;;;5052988;28;49966;-74
2023/04/10 05:45:44;;;;;;;;;13.25;13.25;;;;;;;;5078328;27;49957;-73
2023/04/10 05:48:09;;;;;;;;;12.50;11.25;;;;;;;;5077878;27;49671;-74
2023/04/10 05:50:35;;;;;;;;;12.25;11.25;;;;;;;;5070905;27;49819;-74
2023/04/10 05:53:00;;;;;;;;;11.00;11.00;;;;;;;;5071078;27;50023;-74
2023/04/10 05:55:25;;;;;;;;;10.50;10.50;;;;;;;;5078515;27;49814;-74
2023/04/10 05:57:51;;;;;;;;;12.00;11.25;;;;;;;;5081410;27;50158;-73
2023/04/10 06:00:16;;;;;;;;;11.50;10.25;;;;;;;;5076226;27;50103;-74
2023/04/10 06:02:42;;;;;;;;;15.00;12.50;;;;;;;;5063573;27;49775;-74
2023/04/10 06:05:07;;;;;;;;;13.75;13.75;;;;;;;;5076021;27;49894;-73
2023/04/10 06:07:32;;;;;;;;;13.25;12.25;;;;;;;;5057278;27;50222;-74
2023/04/10 06:09:57;;;;;;;;;16.25;13.75;;;;;;;;5071089;27;50166;-74
2023/04/10 06:12:23;;;;;;;;;11.50;11.50;;;;;;;;5071473;27;49771;-73
2023/04/10 06:14:48;;;;;;;;;12.75;11.25;;;;;;;;5074367;27;50214;-73
2023/04/10 06:17:13;;;;;;;;;14.25;11.50;;;;;;;;5077212;27;50043;-75
2023/04/10 06:19:38;;;;;;;;;13.75;13.00;;;;;;;;5079504;27;49815;-71
2023/04/10 06:22:03;;;;;;;;;12.00;12.00;;;;;;;;5071003;27;49784;-73
2023/04/10 06:24:29;;;;;;;;;11.25;11.25;;;;;;;;5080585;27;50173;-72
2023/04/10 06:26:55;;;;;;;;;14.25;12.50;;;;;;;;5070202;27;49869;-73
2023/04/10 06:29:20;;;;;;;;;11.00;11.00;;;;;;;;5073573;27;49776;-72
2023/04/10 06:31:46;;;;;;;;;10.75;7.50;;;;;;;;5075523;27;49755;-73
2023/04/10 06:34:11;;;;;;;;;11.50;10.50;;;;;;;;5070566;27;50143;-74
2023/04/10 06:36:36;;;;;;;;;14.00;13.00;;;;;;;;5069689;27;49952;-69
2023/04/10 06:39:01;;;;;;;;;14.25;13.25;;;;;;;;5070522;27;50018;-69
2023/04/10 06:41:27;;;;;;;;;11.50;11.50;;;;;;;;5071242;27;49956;-70
2023/04/10 06:43:52;;;;;;;;;13.50;12.00;;;;;;;;5070500;27;49977;-70
2023/04/10 06:46:18;;;;;;;;;13.50;10.25;;;;;;;;5060954;27;50139;-69
2023/04/10 06:48:43;;;;;;;;;13.00;12.75;;;;;;;;5058683;27;49934;-70
2023/04/10 06:51:08;;;;;;;;;12.50;11.50;;;;;;;;5083350;27;50069;-73
2023/04/10 06:53:33;;;;;;;;;14.25;12.75;;;;;;;;5070294;27;50091;-73
2023/04/10 06:55:58;;;;;;;;;13.75;12.25;;;;;;;;5069794;27;49693;-74
2023/04/10 06:58:24;;;;;;;;;10.50;9.50;;;;;;;;5070698;27;49845;-70
2023/04/10 07:00:49;;;;;;;;;9.00;7.75;;;;;;;;5070477;27;50021;-72
2023/04/10 07:03:14;;;;;;;;;9.50;9.50;;;;;;;;5075123;27;49765;-79
2023/04/10 07:05:39;;;;;;;;;12.25;11.75;;;;;;;;5074456;27;49817;-71
2023/04/10 07:08:05;;;;;;;;;12.25;12.25;;;;;;;;5074621;27;50020;-74
2023/04/10 07:10:30;;;;;;;;;13.25;12.75;;;;;;;;5074064;27;50025;-74
2023/04/10 07:12:57;;;;;;;;;9.25;9.25;;;;;;;;5072677;27;50075;-71
2023/04/10 07:15:22;;;;;;;;;10.75;10.75;;;;;;;;5071132;27;49856;-71
2023/04/10 07:17:48;;;;;;;;;10.75;10.50;;;;;;;;5070360;27;49723;-65
2023/04/10 07:20:13;;;;;;;;;14.00;12.75;;;;;;;;5067751;27;49938;-66
2023/04/10 07:22:38;;;;;;;;;12.25;12.25;;;;;;;;5068962;27;51143;-67
2023/04/10 07:25:03;;;;;;;;;13.50;12.50;;;;;;;;5080257;27;49880;-67
2023/04/10 07:27:29;;;;;;;;;12.00;9.50;;;;;;;;5076616;27;49803;-67
2023/04/10 07:29:55;;;;;;;;;10.25;10.25;;;;;;;;5068253;27;49964;-68
2023/04/10 07:32:20;;;;;;;;;8.00;8.00;;;;;;;;5069692;27;49823;-66
2023/04/10 07:34:46;;;;;;;;;8.25;7.75;;;;;;;;5077836;27;49706;-68
2023/04/10 07:37:11;;;;;;;;;14.00;12.75;;;;;;;;5070134;27;49788;-67
2023/04/10 07:39:36;;;;;;;;;12.50;12.50;;;;;;;;5069752;27;49768;-67
2023/04/10 07:42:01;;;;;;;;;11.50;11.50;;;;;;;;5069635;27;51527;-67
2023/04/10 07:44:27;;;;;;;;;13.00;11.75;;;;;;;;5073853;27;50019;-67
2023/04/10 07:46:52;;;;;;;;;10.00;10.00;;;;;;;;5069766;27;50154;-66
2023/04/10 07:49:18;;;;;;;;;12.25;9.00;;;;;;;;5068560;27;50155;-66
2023/04/10 07:51:43;;;;;;;;;10.50;9.25;;;;;;;;5067071;27;49786;-66
2023/04/10 07:54:08;;;;;;;;;8.00;8.00;;;;;;;;5069772;27;49747;-67
2023/04/10 07:56:33;;;;;;;;;8.00;8.00;;;;;;;;5069725;27;49748;-66
2023/04/10 07:58:59;;;;;;;;;8.00;8.00;;;;;;;;5069634;27;49664;-66
2023/04/10 08:01:25;;;;;;;;;10.25;7.75;;;;;;;;5069619;27;50839;-66
2023/04/10 08:03:50;;;;;;;;;8.00;8.00;;;;;;;;5069312;27;50041;-67
2023/04/10 08:06:15;;;;;;;;;10.50;10.00;;;;;;;;5069683;27;50342;-67
2023/04/10 08:08:41;;;;;;;;;11.75;9.00;;;;;;;;5061589;28;49992;-67
2023/04/10 08:11:07;;;;;;;;;7.00;7.00;;;;;;;;5050590;28;50851;-67
2023/04/10 08:13:32;;;;;;;;;10.25;9.25;;;;;;;;5078312;27;49867;-67
2023/04/10 08:15:57;;;;;;;;;9.25;9.25;;;;;;;;5069265;27;49665;-67
2023/04/10 08:18:23;;;;;;;;;8.75;7.25;;;;;;;;5069131;27;50316;-67
2023/04/10 08:20:48;;;;;;;;;9.50;8.25;;;;;;;;5069123;27;49827;-68
2023/04/10 08:23:13;;;;;;;;;13.00;12.00;;;;;;;;5069257;27;49771;-67
2023/04/10 08:25:38;;;;;;;;;10.50;10.50;;;;;;;;5069707;27;50079;-67
2023/04/10 08:28:04;;;;;;;;;11.75;10.25;;;;;;;;5069295;27;50165;-67
2023/04/10 08:30:29;;;;;;;;;16.50;11.75;;;;;;;;5068776;27;51166;-69
2023/04/10 08:32:55;;;;;;;;;11.25;11.25;;;;;;;;5071695;27;49763;-69
2023/04/10 08:35:20;;;;;;;;;7.50;7.50;;;;;;;;5069154;27;49919;-68
2023/04/10 08:37:45;;;;;;;;;9.50;9.00;;;;;;;;5069281;27;50042;-69
2023/04/10 08:40:11;;;;;;;;;13.25;12.00;;;;;;;;5068796;27;51043;-70
2023/04/10 08:42:36;;;;;;;;;11.50;9.50;;;;;;;;5059221;27;49846;-72
2023/04/10 08:45:02;;;;;;;;;7.00;7.00;;;;;;;;5059064;27;49875;-72
2023/04/10 08:47:28;;;;;;;;;9.50;9.50;;;;;;;;5063212;27;50296;-72
2023/04/10 08:49:55;;;;;;;;;8.00;8.00;;;;;;;;5061083;27;50060;-71
2023/04/10 08:52:21;;;;;;;;;9.25;9.25;;;;;;;;5060915;27;49829;-70
2023/04/10 08:54:48;;;;;;;;;9.00;9.00;;;;;;;;5040852;28;50696;-69
2023/04/10 08:57:18;;;;;;;;;9.00;6.50;;;;;;;;5059422;27;49807;-70
2023/04/10 08:59:43;;;;;;;;;6.25;6.25;;;;;;;;5059663;27;50478;-68
2023/04/10 09:02:09;;;;;;;;;7.75;6.75;;;;;;;;5060605;27;50862;-67
2023/04/10 09:04:35;;;;;;;;;11.25;10.00;;;;;;;;5059316;27;50069;-67
2023/04/10 09:07:00;;;;;;;;;9.00;9.00;;;;;;;;5061204;27;49662;-67
2023/04/10 09:09:27;;;;;;;;;58.00;48.00;;;;;;;;5070605;27;49847;-67
2023/04/10 09:11:54;;;;;;;;;18.50;18.50;;;;;;;;5065292;27;49803;-68
2023/04/10 09:14:20;;;;;;;;;27.50;24.50;;;;;;;;5057549;27;50821;-67
2023/04/10 09:16:45;;;;;;;;;17.25;17.00;;;;;;;;5066611;27;50145;-69
2023/04/10 09:19:11;;;;;;;;;12.25;11.50;;;;;;;;5076865;27;50945;-69
2023/04/10 09:21:36;;;;;;;;;11.75;11.75;;;;;;;;5064604;27;50165;-69
2023/04/10 09:24:01;;;;;;;;;4.75;4.75;;;;;;;;5062100;27;49877;-69
2023/04/10 09:26:28;;;;;;;;;9.75;9.25;;;;;;;;5060346;27;49778;-68
2023/04/10 09:29:00;;;;;;;;;17.00;17.00;;;;;;;;5057631;27;49829;-69
2023/04/10 09:31:27;;;;;;;;;25.50;24.00;;;;;;;;5037791;27;49912;-68
2023/04/10 09:34:05;;;;;;;;;23.50;21.50;;;;;;;;5056785;27;50060;-68
2023/04/10 09:36:30;;;;;;;;;11.50;11.25;;;;;;;;5065531;27;50226;-68
2023/04/10 09:38:55;;;;;;;;;15.25;13.75;;;;;;;;5042163;27;52470;-73
2023/04/10 09:41:21;;;;;;;;;77.25;61.25;;;;;;;;5059196;27;50057;-68
2023/04/10 09:43:46;;;;;;;;;15.50;15.50;;;;;;;;5055757;27;51134;-69
2023/04/10 09:46:13;;;;;;;;;5.50;5.50;;;;;;;;5064133;27;50091;-69
2023/04/10 09:48:53;;;;;;;;;10.00;9.50;;;;;;;;5058303;27;50921;-69
2023/04/10 09:51:31;;;;;;;;;9.50;9.00;;;;;;;;5061323;27;49831;-69
2023/04/10 09:53:56;;;;;;;;;14.25;12.50;;;;;;;;5064547;27;50270;-69
2023/04/10 09:56:21;;;;;;;;;8.50;8.50;;;;;;;;5062403;27;50215;-69
2023/04/10 09:58:47;;;;;;;;;6.75;6.00;;;;;;;;5046389;27;50637;-69
2023/04/10 10:01:13;;;;;;;;;12.50;10.25;;;;;;;;5060097;27;49872;-70
2023/04/10 10:03:38;;;;;;;;;12.25;11.75;;;;;;;;5056245;27;49773;-72
2023/04/10 10:06:04;;;;;;;;;9.00;9.00;;;;;;;;5057771;27;50109;-71
2023/04/10 10:08:30;;;;;;;;;7.50;7.50;;;;;;;;5056131;27;50944;-71
2023/04/10 10:10:56;;;;;;;;;8.25;8.25;;;;;;;;5038290;27;49854;-71
2023/04/10 10:13:34;;;;;;;;;6.00;5.00;;;;;;;;5054974;27;50018;-69
2023/04/10 10:15:59;;;;;;;;;17.50;16.50;;;;;;;;5056500;27;49774;-69
2023/04/10 10:18:37;;;;;;;;;216.00;185.00;;;;;;;;5057828;27;50348;-69
2023/04/10 10:21:03;;;;;;;;;82.00;69.67;;;;;;;;5058167;27;50963;-69
2023/04/10 10:23:30;;;;;;;;;20.25;19.50;;;;;;;;5057209;27;50368;-69
2023/04/10 10:25:57;;;;;;;;;18.00;18.00;;;;;;;;5059563;27;49822;-69
2023/04/10 10:28:24;;;;;;;;;101.33;87.33;;;;;;;;5049601;27;50116;-71
2023/04/10 10:30:50;;;;;;;;;572.25;483.50;;;;;;;;5051261;27;50223;-70
2023/04/10 10:33:16;;;;;;;;;189.00;166.25;;;;;;;;5052609;27;50112;-68
2023/04/10 10:35:41;;;;;;;;;166.25;151.50;;;;;;;;5049408;28;49810;-68
2023/04/10 10:38:07;;;;;;;;;231.75;214.50;;;;;;;;5067947;27;50810;-67
2023/04/10 10:40:38;;;;;;;;;282.00;253.00;;;;;;;;5074720;27;50182;-70
2023/04/10 10:43:13;;;;;;;;;276.20;262.20;;;;;;;;5068641;27;50629;-69
2023/04/10 10:45:41;;;;;;;;;176.75;165.00;;;;;;;;5049967;28;49828;-68
2023/04/10 10:48:06;;;;;;;;;46.00;35.75;;;;;;;;5067493;27;50676;-70
2023/04/10 10:50:55;;;;;;;;;33.50;32.00;;;;;;;;5067991;27;50231;-68
2023/04/10 10:53:47;;;;;;;;;14.50;14.50;;;;;;;;5067507;27;49838;-69
2023/04/10 10:56:18;;;;;;;;;35.00;33.25;;;;;;;;5064718;27;49766;-69
2023/04/10 10:58:54;;;;;;;;;21.75;18.50;;;;;;;;5057868;27;51493;-71
2023/04/10 11:01:21;;;;;;;;;16.00;14.25;;;;;;;;5068825;27;50021;-71
2023/04/10 11:03:46;;;;;;;;;14.50;12.50;;;;;;;;5069462;27;49584;-73
2023/04/10 11:06:21;;;;;;;;;11.75;9.00;;;;;;;;5069103;27;50249;-74
2023/04/10 11:08:51;;;;;;;;;12.00;12.00;;;;;;;;5068956;27;49984;-73
2023/04/10 11:11:22;;;;;;;;;9.50;7.00;;;;;;;;5081956;27;49738;-74
2023/04/10 11:13:56;;;;;;;;;52.75;42.00;;;;;;;;5062403;27;49788;-72
2023/04/10 11:16:34;;;;;;;;;34.75;28.50;;;;;;;;5066346;27;49974;-71
2023/04/10 11:19:00;;;;;;;;;44.25;37.50;;;;;;;;5070295;27;50112;-73
2023/04/10 11:21:27;;;;;;;;;19.25;18.50;;;;;;;;5055487;27;50151;-72
2023/04/10 11:23:53;;;;;;;;;13.25;12.75;;;;;;;;5068561;27;50353;-73
2023/04/10 11:26:51;;;;;;;;;6.75;6.75;;;;;;;;5068998;27;49795;-70
2023/04/10 11:29:16;;;;;;;;;11.75;10.75;;;;;;;;5076023;27;49802;-70
2023/04/10 11:31:45;;;;;;;;;9.80;9.80;;;;;;;;5070051;27;49934;-71
2023/04/10 11:34:11;;;;;;;;;7.50;6.50;;;;;;;;5069435;27;49915;-69
2023/04/10 11:36:40;;;;;;;;;5.00;5.00;;;;;;;;5069736;27;50721;-75
2023/04/10 11:39:12;;;;;;;;;2.25;2.25;;;;;;;;5069771;27;49977;-72
2023/04/10 11:41:38;;;;;;;;;11.25;9.75;;;;;;;;5068599;27;49965;-73
2023/04/10 11:44:11;;;;;;;;;5.00;4.00;;;;;;;;5077346;27;50261;-74
2023/04/10 11:46:37;;;;;;;;;9.00;8.50;;;;;;;;5066910;27;49832;-72
2023/04/10 11:49:03;;;;;;;;;5.75;5.75;;;;;;;;5069024;27;50034;-71
2023/04/10 11:51:29;;;;;;;;;5.00;4.00;;;;;;;;5069681;27;49660;-70
2023/04/10 11:54:11;;;;;;;;;5.50;5.00;;;;;;;;5050586;28;49677;-69
2023/04/10 11:56:37;;;;;;;;;6.50;5.25;;;;;;;;5063535;27;50277;-69
2023/04/10 11:59:08;;;;;;;;;4.50;4.50;;;;;;;;5061405;27;50614;-74
2023/04/10 12:01:33;;;;;;;;;6.25;6.25;;;;;;;;5069557;27;50168;-73
2023/04/10 12:03:59;;;;;;;;;5.00;5.00;;;;;;;;5068637;27;50074;-71
2023/04/10 12:06:26;;;;;;;;;6.25;4.50;;;;;;;;5070159;27;49921;-74
2023/04/10 12:08:51;;;;;;;;;9.00;8.25;;;;;;;;5070974;27;50055;-73
2023/04/10 12:11:19;;;;;;;;;5.75;5.00;;;;;;;;5066727;27;50103;-74
2023/04/10 12:13:44;;;;;;;;;4.25;4.25;;;;;;;;5066688;27;49989;-73
2023/04/10 12:16:09;;;;;;;;;5.75;4.25;;;;;;;;5088808;27;49977;-73
2023/04/10 12:18:35;;;;;;;;;7.50;6.25;;;;;;;;5069539;27;50811;-73
2023/04/10 12:21:00;;;;;;;;;8.00;8.00;;;;;;;;5069372;27;49741;-72
2023/04/10 12:23:26;;;;;;;;;6.75;6.00;;;;;;;;5069377;27;49664;-73
2023/04/10 12:25:52;;;;;;;;;8.00;7.00;;;;;;;;5068701;27;49653;-72
2023/04/10 12:28:18;;;;;;;;;6.00;6.00;;;;;;;;5068766;27;50314;-73
2023/04/10 12:30:47;;;;;;;;;4.25;4.25;;;;;;;;5067600;27;49710;-72
2023/04/10 12:33:13;;;;;;;;;5.00;4.00;;;;;;;;5067904;27;49738;-72
2023/04/10 12:35:39;;;;;;;;;4.00;4.00;;;;;;;;5068831;27;50013;-72
2023/04/10 12:38:04;;;;;;;;;8.75;6.00;;;;;;;;5065411;27;49839;-71
2023/04/10 12:40:29;;;;;;;;;4.50;4.50;;;;;;;;5068411;27;49934;-72
2023/04/10 12:42:55;;;;;;;;;3.25;3.25;;;;;;;;5050765;27;49657;-73
2023/04/10 12:45:20;;;;;;;;;5.50;4.00;;;;;;;;5069083;27;50064;-72
2023/04/10 12:47:46;;;;;;;;;6.25;5.50;;;;;;;;5050327;27;51228;-71
2023/04/10 12:50:13;;;;;;;;;6.00;6.00;;;;;;;;5068314;27;50135;-74
2023/04/10 12:52:40;;;;;;;;;4.00;4.00;;;;;;;;5068412;27;49817;-71
2023/04/10 12:55:16;;;;;;;;;4.50;4.50;;;;;;;;5071482;27;50082;-73
2023/04/10 12:57:42;;;;;;;;;8.75;7.75;;;;;;;;5071553;27;49858;-73
2023/04/10 13:00:12;;;;;;;;;2.75;2.75;;;;;;;;5058016;27;50342;-72
2023/04/10 13:02:37;;;;;;;;;4.00;3.50;;;;;;;;5081711;27;50304;-73
2023/04/10 13:05:03;;;;;;;;;4.00;4.00;;;;;;;;5068756;27;49664;-72
2023/04/10 13:07:28;;;;;;;;;3.00;2.00;;;;;;;;5068277;27;50695;-72
2023/04/10 13:09:54;;;;;;;;;5.00;4.50;;;;;;;;5072038;27;49819;-72
2023/04/10 13:12:19;;;;;;;;;4.00;4.00;;;;;;;;5072217;27;49735;-73
2023/04/10 13:14:45;;;;;;;;;4.25;4.25;;;;;;;;5072457;27;49945;-73
2023/04/10 13:17:10;;;;;;;;;4.75;4.75;;;;;;;;5071357;27;52109;-74
2023/04/10 13:19:35;;;;;;;;;7.75;7.75;;;;;;;;5071761;27;49791;-74
2023/04/10 13:22:01;;;;;;;;;4.50;4.50;;;;;;;;5068270;27;49781;-74
2023/04/10 13:24:26;;;;;;;;;4.50;4.00;;;;;;;;5071583;27;49789;-74
2023/04/10 13:26:51;;;;;;;;;3.25;3.25;;;;;;;;5070979;27;52337;-73
2023/04/10 13:29:16;;;;;;;;;5.25;5.25;;;;;;;;5063105;27;50160;-73
2023/04/10 13:31:41;;;;;;;;;6.75;6.75;;;;;;;;5071892;27;50472;-73
2023/04/10 13:34:06;;;;;;;;;4.50;4.50;;;;;;;;5072392;27;50233;-73
2023/04/10 13:36:32;;;;;;;;;3.75;3.75;;;;;;;;5071419;27;50732;-73
2023/04/10 13:38:57;;;;;;;;;3.50;3.50;;;;;;;;5071219;27;50078;-73
2023/04/10 13:41:22;;;;;;;;;5.75;4.75;;;;;;;;5069325;27;49778;-73
2023/04/10 13:43:47;;;;;;;;;3.75;3.75;;;;;;;;5071893;27;50065;-73
2023/04/10 13:46:13;;;;;;;;;3.50;0.75;;;;;;;;5071554;27;51033;-73
2023/04/10 13:48:40;;;;;;;;;3.50;3.50;;;;;;;;5071811;27;50008;-73
2023/04/10 13:51:05;;;;;;;;;3.50;3.50;;;;;;;;5068770;27;49858;-74
2023/04/10 13:53:30;;;;;;;;;4.00;3.50;;;;;;;;5053375;28;50010;-74
2023/04/10 13:55:56;;;;;;;;;3.00;2.25;;;;;;;;5049315;27;50281;-75
2023/04/10 13:58:21;;;;;;;;;3.00;3.00;;;;;;;;5068030;27;50314;-73
2023/04/10 14:00:46;;;;;;;;;2.75;2.75;;;;;;;;5067675;27;49796;-74
2023/04/10 14:03:12;;;;;;;;;4.00;4.00;;;;;;;;5071842;27;50015;-74
2023/04/10 14:05:37;;;;;;;;;3.00;3.00;;;;;;;;5070874;27;50567;-75
2023/04/10 14:08:03;;;;;;;;;2.75;2.75;;;;;;;;5071271;27;49774;-74
2023/04/10 14:10:28;;;;;;;;;5.25;3.50;;;;;;;;5039041;27;50092;-74
2023/04/10 14:12:53;;;;;;;;;2.50;2.50;;;;;;;;5030645;27;51275;-74
2023/04/10 14:15:18;;;;;;;;;3.25;3.25;;;;;;;;5065187;27;50905;-75
2023/04/10 14:17:43;;;;;;;;;3.00;3.00;;;;;;;;5070595;27;50178;-74
2023/04/10 14:20:12;;;;;;;;;4.00;3.00;;;;;;;;5077352;27;49761;-74